createdAt,value
2019-03-31T00:00:32.604Z,16.43
2019-03-31T00:03:03.213Z,15.40
2019-03-31T00:05:37.637Z,15.23
2019-03-31T00:08:08.468Z,15.80
2019-03-31T00:10:39.069Z,15.00
2019-03-31T00:13:09.684Z,15.00
2019-03-31T00:15:42.294Z,13.90
2019-03-31T00:18:13.314Z,14.60
2019-03-31T00:20:44.079Z,14.80
2019-03-31T00:23:17.704Z,15.80
2019-03-31T00:25:49.137Z,15.23
2019-03-31T00:28:19.980Z,16.07
2019-03-31T00:30:52.491Z,14.37
2019-03-31T00:33:23.665Z,15.17
2019-03-31T00:35:54.393Z,13.77
2019-03-31T00:38:25.288Z,13.67
2019-03-31T00:40:56.707Z,13.47
2019-03-31T00:43:30.374Z,12.77
2019-03-31T00:46:01.794Z,13.53
2019-03-31T00:48:32.491Z,12.80
2019-03-31T00:51:05.975Z,12.23
2019-03-31T00:53:35.861Z,13.97
2019-03-31T00:56:06.508Z,12.90
2019-03-31T00:58:37.203Z,11.83
2019-03-31T01:01:10.491Z,13.27
2019-03-31T01:03:42.057Z,11.87
2019-03-31T01:06:17.066Z,13.43
2019-03-31T01:08:48.268Z,13.70
2019-03-31T01:11:21.553Z,13.63
2019-03-31T01:13:52.750Z,13.70
2019-03-31T01:16:26.487Z,13.17
2019-03-31T01:18:59.785Z,12.67
2019-03-31T01:21:31.037Z,12.80
2019-03-31T01:24:01.776Z,11.60
2019-03-31T01:26:35.727Z,11.80
2019-03-31T01:29:07.581Z,12.03
2019-03-31T01:31:49.578Z,12.83
2019-03-31T01:34:14.202Z,12.67
2019-03-31T01:36:44.049Z,11.50
2019-03-31T01:39:15.113Z,11.60
2019-03-31T01:41:49.279Z,12.00
2019-03-31T01:44:20.114Z,12.03
2019-03-31T01:47:02.305Z,12.00
2019-03-31T01:49:34.744Z,11.93
2019-03-31T01:52:05.373Z,11.67
2019-03-31T01:54:35.949Z,11.23
2019-03-31T01:57:07.125Z,11.30
2019-03-31T01:59:37.691Z,10.87
2019-03-31T02:02:10.092Z,12.83
2019-03-31T02:04:42.490Z,12.97
2019-03-31T02:07:14.399Z,11.93
2019-03-31T02:09:44.966Z,11.50
2019-03-31T02:12:15.941Z,11.73
2019-03-31T02:14:46.560Z,13.03
2019-03-31T02:17:17.893Z,12.13
2019-03-31T02:19:49.182Z,12.40
2019-03-31T02:22:19.856Z,12.30
2019-03-31T02:24:50.908Z,11.90
2019-03-31T02:27:21.952Z,12.60
2019-03-31T02:29:52.876Z,11.70
2019-03-31T02:32:26.116Z,12.03
2019-03-31T02:34:56.758Z,11.33
2019-03-31T02:37:27.368Z,11.80
2019-03-31T02:39:58.135Z,11.50
2019-03-31T02:42:30.464Z,12.50
2019-03-31T02:45:04.042Z,12.47
2019-03-31T02:47:37.727Z,13.03
2019-03-31T02:50:08.818Z,12.10
2019-03-31T02:52:39.941Z,11.77
2019-03-31T03:04:34.898Z,11.20
2019-03-31T03:07:07.998Z,12.83
2019-03-31T03:09:40.694Z,12.07
2019-03-31T03:12:14.401Z,11.87
2019-03-31T03:14:57.678Z,13.83
2019-03-31T03:17:30.001Z,11.97
2019-03-31T03:20:02.102Z,12.70
2019-03-31T03:22:36.157Z,12.43
2019-03-31T03:25:08.607Z,11.73
2019-03-31T03:27:43.836Z,12.13
2019-03-31T03:30:14.582Z,12.87
2019-03-31T03:33:12.251Z,13.27
2019-03-31T03:35:18.229Z,11.70
2019-03-31T03:37:53.341Z,13.07
2019-03-31T03:40:24.316Z,13.03
2019-03-31T03:42:54.912Z,12.47
2019-03-31T03:45:29.008Z,12.73
2019-03-31T03:47:59.690Z,13.63
2019-03-31T03:50:30.317Z,12.80
2019-03-31T03:53:01.249Z,12.60
2019-03-31T03:55:31.879Z,12.57
2019-03-31T03:58:02.841Z,13.20
2019-03-31T04:00:34.185Z,12.47
2019-03-31T04:03:04.966Z,12.27
2019-03-31T04:05:35.591Z,13.10
2019-03-31T04:08:06.273Z,10.77
2019-03-31T04:10:48.480Z,11.87
2019-03-31T04:13:22.540Z,11.93
2019-03-31T04:15:54.581Z,11.87
2019-03-31T04:18:24.070Z,11.93
2019-03-31T04:20:54.736Z,10.93
2019-03-31T04:23:27.180Z,12.03
2019-03-31T04:25:58.310Z,11.23
2019-03-31T04:28:28.937Z,11.83
2019-03-31T04:31:00.676Z,10.83
2019-03-31T04:33:49.734Z,11.00
2019-03-31T04:36:04.123Z,11.50
2019-03-31T04:38:34.856Z,11.47
2019-03-31T04:41:06.296Z,11.23
2019-03-31T04:43:37.011Z,11.83
2019-03-31T04:46:07.697Z,11.53
2019-03-31T04:48:38.935Z,12.50
2019-03-31T04:51:09.541Z,11.13
2019-03-31T04:53:45.157Z,11.17
2019-03-31T04:56:15.866Z,11.07
2019-03-31T04:58:47.277Z,11.47
2019-03-31T05:01:18.001Z,11.03
2019-03-31T05:04:03.931Z,12.07
2019-03-31T05:06:26.267Z,12.00
2019-03-31T05:08:56.031Z,11.20
2019-03-31T05:11:28.728Z,11.83
2019-03-31T05:14:04.443Z,11.63
2019-03-31T05:16:34.815Z,11.27
2019-03-31T05:19:06.238Z,10.83
2019-03-31T05:21:36.954Z,11.17
2019-03-31T05:24:08.337Z,12.53
2019-03-31T05:26:40.207Z,12.60
2019-03-31T05:29:14.099Z,13.40
2019-03-31T05:31:45.203Z,13.23
2019-03-31T05:34:19.233Z,12.73
2019-03-31T05:36:48.195Z,12.77
2019-03-31T05:39:18.850Z,13.97
2019-03-31T05:41:49.881Z,12.03
2019-03-31T05:44:20.724Z,11.97
2019-03-31T05:46:52.861Z,12.53
2019-03-31T05:49:27.110Z,13.13
2019-03-31T05:51:57.841Z,12.83
2019-03-31T05:54:28.496Z,13.13
2019-03-31T05:56:59.553Z,14.43
2019-03-31T05:59:31.897Z,13.77
2019-03-31T06:02:05.591Z,14.43
2019-03-31T06:04:36.140Z,14.53
2019-03-31T06:07:06.827Z,15.77
2019-03-31T06:09:37.682Z,14.80
2019-03-31T06:12:10.899Z,14.30
2019-03-31T06:14:43.871Z,14.17
2019-03-31T06:17:14.480Z,14.10
2019-03-31T06:19:48.092Z,13.23
2019-03-31T06:22:18.807Z,12.90
2019-03-31T06:24:49.679Z,14.43
2019-03-31T06:27:23.698Z,13.20
2019-03-31T06:29:58.473Z,12.83
2019-03-31T06:32:29.113Z,12.87
2019-03-31T06:35:00.560Z,13.07
2019-03-31T06:37:31.182Z,13.17
2019-03-31T06:40:01.812Z,11.63
2019-03-31T06:42:33.330Z,13.63
2019-03-31T06:45:05.632Z,12.50
2019-03-31T06:47:38.628Z,11.27
2019-03-31T06:50:13.140Z,12.10
2019-03-31T06:52:45.090Z,11.00
2019-03-31T06:55:18.888Z,10.73
2019-03-31T06:57:50.022Z,11.40
2019-03-31T07:00:24.664Z,11.07
2019-03-31T07:02:56.391Z,10.47
2019-03-31T07:05:27.408Z,11.50
2019-03-31T07:07:59.264Z,10.97
2019-03-31T07:10:33.041Z,11.07
2019-03-31T07:13:03.705Z,10.13
2019-03-31T07:15:34.521Z,11.03
2019-03-31T07:18:05.408Z,12.30
2019-03-31T07:20:36.069Z,11.23
2019-03-31T07:23:10.350Z,12.03
2019-03-31T07:25:40.942Z,11.57
2019-03-31T07:28:11.500Z,13.30
2019-03-31T07:30:42.730Z,12.37
2019-03-31T07:33:14.819Z,12.40
2019-03-31T07:35:45.420Z,13.57
2019-03-31T07:38:16.615Z,12.80
2019-03-31T07:40:47.702Z,11.90
2019-03-31T07:43:21.886Z,12.87
2019-03-31T07:45:55.716Z,12.77
2019-03-31T07:48:26.939Z,12.77
2019-03-31T07:50:57.539Z,13.03
2019-03-31T07:53:28.067Z,12.27
2019-03-31T07:55:59.199Z,13.60
2019-03-31T07:58:30.578Z,14.10
2019-03-31T08:01:01.445Z,14.60
2019-03-31T08:03:32.382Z,14.83
2019-03-31T08:06:02.977Z,13.23
2019-03-31T08:08:33.705Z,15.00
2019-03-31T08:11:04.315Z,14.57
2019-03-31T08:13:34.976Z,15.63
2019-03-31T08:16:05.618Z,15.47
2019-03-31T08:18:36.221Z,14.37
2019-03-31T08:21:06.824Z,15.87
2019-03-31T08:23:37.497Z,16.13
2019-03-31T08:26:08.114Z,15.17
2019-03-31T08:28:38.804Z,15.87
2019-03-31T08:31:12.680Z,16.00
2019-03-31T08:33:43.338Z,16.00
2019-03-31T08:36:16.769Z,14.63
2019-03-31T08:38:47.731Z,16.73
2019-03-31T08:41:18.712Z,15.17
2019-03-31T08:43:49.990Z,14.00
2019-03-31T08:46:20.702Z,13.80
2019-03-31T08:48:51.733Z,13.70
2019-03-31T08:51:22.843Z,13.80
2019-03-31T08:53:53.518Z,15.27
2019-03-31T08:56:24.124Z,15.83
2019-03-31T08:58:54.801Z,14.07
2019-03-31T09:01:25.520Z,14.40
2019-03-31T09:06:46.787Z,14.80
2019-03-31T09:09:19.204Z,13.20
2019-03-31T09:11:55.634Z,13.10
2019-03-31T09:14:26.624Z,12.90
2019-03-31T09:16:57.348Z,13.53
2019-03-31T09:19:28.399Z,13.37
2019-03-31T09:21:59.061Z,12.77
2019-03-31T09:24:29.761Z,13.50
2019-03-31T09:27:03.209Z,12.40
2019-03-31T09:29:33.917Z,12.83
2019-03-31T09:32:04.548Z,11.77
2019-03-31T09:34:38.220Z,13.07
2019-03-31T09:37:09.431Z,12.50
2019-03-31T09:39:40.972Z,12.17
2019-03-31T09:42:13.835Z,12.07
2019-03-31T09:44:44.471Z,12.70
2019-03-31T09:47:15.128Z,12.43
2019-03-31T09:49:45.773Z,12.30
2019-03-31T09:52:16.411Z,11.70
2019-03-31T09:54:47.045Z,12.70
2019-03-31T09:57:18.545Z,11.17
2019-03-31T09:59:49.175Z,12.47
2019-03-31T10:02:21.582Z,12.77
2019-03-31T10:04:52.259Z,10.80
2019-03-31T10:07:23.918Z,11.07
2019-03-31T10:09:55.277Z,10.77
2019-03-31T10:12:26.516Z,12.43
2019-03-31T10:15:01.467Z,11.97
2019-03-31T10:17:33.271Z,11.13
2019-03-31T10:20:04.800Z,11.43
2019-03-31T10:22:35.463Z,12.17
2019-03-31T10:25:08.433Z,11.40
2019-03-31T10:27:39.186Z,11.43
2019-03-31T10:30:10.558Z,10.97
2019-03-31T10:36:44.406Z,10.93
2019-03-31T10:39:10.477Z,11.00
2019-03-31T10:41:41.127Z,11.37
2019-03-31T10:44:11.817Z,11.97
2019-03-31T10:46:42.516Z,11.53
2019-03-31T10:49:14.617Z,11.40
2019-03-31T10:51:45.233Z,10.97
2019-03-31T10:54:19.354Z,10.90
2019-03-31T10:56:50.385Z,11.17
2019-03-31T10:59:21.020Z,10.47
2019-03-31T11:01:52.022Z,11.30
2019-03-31T11:04:22.676Z,10.37
2019-03-31T11:06:59.512Z,10.37
2019-03-31T11:09:26.955Z,11.07
2019-03-31T11:11:58.999Z,10.73
2019-03-31T11:14:30.012Z,11.57
2019-03-31T11:17:01.086Z,9.80
2019-03-31T11:19:32.998Z,9.30
2019-03-31T11:22:05.619Z,11.00
2019-03-31T11:24:36.398Z,12.00
2019-03-31T11:27:07.168Z,11.40
2019-03-31T11:29:39.783Z,11.13
2019-03-31T11:32:10.748Z,11.93
2019-03-31T11:34:41.886Z,12.37
2019-03-31T11:37:14.043Z,12.37
2019-03-31T11:39:47.272Z,12.30
2019-03-31T11:42:19.056Z,12.10
2019-03-31T11:44:49.816Z,13.33
2019-03-31T11:47:20.499Z,12.83
2019-03-31T11:49:54.823Z,13.33
2019-03-31T11:52:25.495Z,13.00
2019-03-31T11:54:56.538Z,12.53
2019-03-31T11:57:27.194Z,12.83
2019-03-31T11:59:58.750Z,14.13
2019-03-31T12:02:29.743Z,13.23
2019-03-31T12:05:00.776Z,11.57
2019-03-31T12:07:45.658Z,11.93
2019-03-31T12:10:06.934Z,12.07
2019-03-31T12:12:37.555Z,12.97
2019-03-31T12:15:11.969Z,12.57
2019-03-31T12:17:46.888Z,11.97
2019-03-31T12:20:19.147Z,11.13
2019-03-31T12:22:49.777Z,10.53
2019-03-31T12:25:20.816Z,11.93
2019-03-31T12:27:52.073Z,12.90
2019-03-31T12:30:29.619Z,13.33
2019-03-31T12:33:00.328Z,11.70
2019-03-31T12:35:31.386Z,11.53
2019-03-31T12:38:03.768Z,11.80
2019-03-31T12:40:41.331Z,10.77
2019-03-31T12:43:12.464Z,11.53
2019-03-31T12:45:43.582Z,9.97
2019-03-31T12:48:17.832Z,10.77
2019-03-31T12:50:51.134Z,10.87
2019-03-31T12:53:21.793Z,10.90
2019-03-31T12:56:00.007Z,10.03
2019-03-31T12:58:25.358Z,10.57
2019-03-31T13:00:57.458Z,10.13
2019-03-31T13:03:28.862Z,10.53
2019-03-31T13:05:59.713Z,9.77
2019-03-31T13:08:30.242Z,9.33
2019-03-31T13:11:01.606Z,10.13
2019-03-31T13:13:32.227Z,8.37
2019-03-31T13:16:04.315Z,8.47
2019-03-31T13:18:35.369Z,8.57
2019-03-31T13:21:07.269Z,8.50
2019-03-31T13:23:39.167Z,8.50
2019-03-31T13:26:13.079Z,9.70
2019-03-31T13:28:44.067Z,9.43
2019-03-31T13:31:14.757Z,8.93
2019-03-31T13:33:45.431Z,8.77
2019-03-31T13:36:17.933Z,9.20
2019-03-31T13:38:48.591Z,9.07
2019-03-31T13:41:19.632Z,8.27
2019-03-31T13:43:53.704Z,9.03
2019-03-31T13:46:24.425Z,8.97
2019-03-31T13:48:55.369Z,8.83
2019-03-31T13:51:26.738Z,8.97
2019-03-31T13:53:57.452Z,8.97
2019-03-31T13:56:32.466Z,9.27
2019-03-31T13:59:09.107Z,8.30
2019-03-31T14:01:39.615Z,9.27
2019-03-31T14:04:10.323Z,8.40
2019-03-31T14:06:41.141Z,8.50
2019-03-31T14:09:11.761Z,8.43
2019-03-31T14:11:42.736Z,8.27
2019-03-31T14:14:13.688Z,9.10
2019-03-31T14:16:48.826Z,9.73
2019-03-31T14:19:21.003Z,7.67
2019-03-31T14:21:51.754Z,7.90
2019-03-31T14:24:22.899Z,8.00
2019-03-31T14:26:58.494Z,7.70
2019-03-31T14:29:29.071Z,7.50
2019-03-31T14:32:00.141Z,7.73
2019-03-31T14:34:31.191Z,7.23
2019-03-31T14:37:01.903Z,7.30
2019-03-31T14:39:32.427Z,6.97
2019-03-31T14:42:03.041Z,7.00
2019-03-31T14:44:33.998Z,6.47
2019-03-31T14:47:07.409Z,6.63
2019-03-31T14:49:38.312Z,6.20
2019-03-31T14:52:26.641Z,5.50
2019-03-31T14:54:49.127Z,6.03
2019-03-31T14:57:20.505Z,5.30
2019-03-31T14:59:51.199Z,6.83
2019-03-31T15:02:21.928Z,5.40
2019-03-31T15:04:52.569Z,5.70
2019-03-31T15:07:24.327Z,5.40
2019-03-31T15:09:57.613Z,5.60
2019-03-31T15:12:28.182Z,6.10
2019-03-31T15:15:01.423Z,5.77
2019-03-31T15:17:32.811Z,5.73
2019-03-31T15:20:03.891Z,5.73
2019-03-31T15:22:35.692Z,5.90
2019-03-31T15:25:08.453Z,6.00
2019-03-31T15:27:45.629Z,5.77
2019-03-31T15:30:16.726Z,6.30
2019-03-31T15:32:47.389Z,6.03
2019-03-31T15:35:18.008Z,5.47
2019-03-31T15:37:50.199Z,5.70
2019-03-31T15:40:23.745Z,5.93
2019-03-31T15:42:53.186Z,6.13
2019-03-31T15:45:26.769Z,5.77
2019-03-31T15:47:57.640Z,6.03
2019-03-31T15:50:28.208Z,5.37
2019-03-31T15:52:59.334Z,5.60
2019-03-31T15:55:30.050Z,5.47
2019-03-31T15:58:00.740Z,5.37
2019-03-31T16:00:31.405Z,5.40
2019-03-31T16:03:02.231Z,5.33
2019-03-31T16:05:32.898Z,5.23
2019-03-31T16:08:03.732Z,5.57
2019-03-31T16:10:34.400Z,5.87
2019-03-31T16:13:08.235Z,5.37
2019-03-31T16:15:38.883Z,5.50
2019-03-31T16:18:09.499Z,5.73
2019-03-31T16:20:43.258Z,5.80
2019-03-31T16:23:16.026Z,5.63
2019-03-31T16:25:48.690Z,6.30
2019-03-31T16:28:19.349Z,6.20
2019-03-31T16:30:49.984Z,6.00
2019-03-31T16:33:20.605Z,6.03
2019-03-31T16:35:56.771Z,5.30
2019-03-31T16:38:27.957Z,5.90
2019-03-31T16:40:58.635Z,5.53
2019-03-31T16:43:30.093Z,5.40
2019-03-31T16:46:00.745Z,5.30
2019-03-31T16:48:31.449Z,5.50
2019-03-31T16:51:02.040Z,5.40
2019-03-31T16:53:34.550Z,5.10
2019-03-31T16:56:05.258Z,5.53
2019-03-31T16:58:39.512Z,5.53
2019-03-31T17:01:10.442Z,5.80
2019-03-31T17:03:44.303Z,5.03
2019-03-31T17:06:15.218Z,5.53
2019-03-31T17:08:46.574Z,5.17
2019-03-31T17:11:22.051Z,5.60
2019-03-31T17:13:52.796Z,5.63
2019-03-31T17:16:23.379Z,5.73
2019-03-31T17:19:02.042Z,6.00
2019-03-31T17:21:32.777Z,6.10
2019-03-31T17:24:03.438Z,5.97
2019-03-31T17:26:34.071Z,5.13
2019-03-31T17:29:04.710Z,5.93
2019-03-31T17:31:35.352Z,6.10
2019-03-31T17:34:06.336Z,6.77
2019-03-31T17:36:37.302Z,6.30
2019-03-31T17:39:09.009Z,5.70
2019-03-31T17:41:39.923Z,5.50
2019-03-31T17:44:10.651Z,5.17
2019-03-31T17:46:43.410Z,5.43
2019-03-31T17:49:13.866Z,6.10
2019-03-31T17:51:44.678Z,6.37
2019-03-31T17:54:15.482Z,6.70
2019-03-31T17:56:46.661Z,6.03
2019-03-31T17:59:17.390Z,6.90
2019-03-31T18:01:48.063Z,6.53
2019-03-31T18:04:18.729Z,6.67
2019-03-31T18:06:49.325Z,7.43
2019-03-31T18:09:20.424Z,8.47
2019-03-31T18:11:51.365Z,7.80
2019-03-31T18:14:23.612Z,9.70
2019-03-31T18:16:54.217Z,8.73
2019-03-31T18:19:25.325Z,8.03
2019-03-31T18:21:55.916Z,8.47
2019-03-31T18:24:27.526Z,8.77
2019-03-31T18:26:58.073Z,8.47
2019-03-31T18:29:31.717Z,9.60
2019-03-31T18:32:05.936Z,9.43
2019-03-31T18:34:37.026Z,8.03
2019-03-31T18:37:08.029Z,7.07
2019-03-31T18:39:41.711Z,7.83
2019-03-31T18:42:14.640Z,8.37
2019-03-31T18:44:45.248Z,7.20
2019-03-31T18:47:16.284Z,7.73
2019-03-31T18:49:46.932Z,7.93
2019-03-31T18:52:17.554Z,7.23
2019-03-31T18:54:49.850Z,7.30
2019-03-31T18:57:31.670Z,8.23
2019-03-31T19:00:11.256Z,8.70
2019-03-31T19:03:10.375Z,7.87
2019-03-31T19:05:42.834Z,9.03
2019-03-31T19:08:21.133Z,9.43
2019-03-31T19:10:57.048Z,9.53
2019-03-31T19:13:54.825Z,9.03
2019-03-31T19:16:19.987Z,8.83
2019-03-31T19:19:03.965Z,8.87
2019-03-31T19:21:45.263Z,9.10
2019-03-31T19:24:23.586Z,9.77
2019-03-31T19:26:56.660Z,9.37
2019-03-31T19:29:48.121Z,10.63
2019-03-31T19:32:26.238Z,9.97
2019-03-31T19:35:11.109Z,9.80
2019-03-31T19:37:52.891Z,10.07
2019-03-31T19:40:28.938Z,10.43
2019-03-31T19:43:22.649Z,10.23
2019-03-31T19:45:57.915Z,10.30
2019-03-31T19:48:45.262Z,11.00
2019-03-31T19:51:28.079Z,10.77
2019-03-31T19:54:11.673Z,10.87
2019-03-31T19:56:47.053Z,11.83
2019-03-31T19:59:25.156Z,10.00
2019-03-31T20:02:01.410Z,10.27
2019-03-31T20:04:36.277Z,11.47
2019-03-31T20:07:25.416Z,11.10
2019-03-31T20:10:00.939Z,11.40
2019-03-31T20:12:37.487Z,11.67
2019-03-31T20:15:13.490Z,11.83
2019-03-31T20:17:48.541Z,12.20
2019-03-31T20:20:22.620Z,11.00
2019-03-31T20:23:13.600Z,12.87
2019-03-31T20:26:04.973Z,11.40
2019-03-31T20:28:56.833Z,11.43
2019-03-31T20:31:55.717Z,10.77
2019-03-31T20:34:30.527Z,11.27
2019-03-31T20:37:08.593Z,12.03
2019-03-31T20:39:56.013Z,11.20
2019-03-31T20:45:13.597Z,12.33
2019-03-31T20:47:44.227Z,11.47
2019-03-31T20:50:15.172Z,11.67
2019-03-31T20:52:45.910Z,11.57
2019-03-31T20:55:17.039Z,11.10
2019-03-31T20:57:47.840Z,11.37
2019-03-31T21:00:18.913Z,11.67
2019-03-31T21:02:51.766Z,11.30
2019-03-31T21:05:22.470Z,10.90
2019-03-31T21:07:53.964Z,11.13
2019-03-31T21:10:24.557Z,11.17
2019-03-31T21:12:55.250Z,13.10
2019-03-31T21:15:28.823Z,12.50
2019-03-31T21:17:59.695Z,13.03
2019-03-31T21:20:30.131Z,13.07
2019-03-31T21:23:08.456Z,12.33
2019-03-31T21:25:41.210Z,12.87
2019-03-31T21:28:11.819Z,11.90
2019-03-31T21:30:44.843Z,12.90
2019-03-31T21:33:16.061Z,13.73
2019-03-31T21:35:49.010Z,12.47
2019-03-31T21:38:19.411Z,13.03
2019-03-31T21:40:50.379Z,14.33
2019-03-31T21:43:27.961Z,14.67
2019-03-31T21:45:56.781Z,13.13
2019-03-31T21:48:27.807Z,14.37
2019-03-31T21:50:58.932Z,14.23
2019-03-31T21:53:29.585Z,14.27
2019-03-31T21:56:03.796Z,14.70
2019-03-31T21:58:34.806Z,14.30
2019-03-31T22:01:06.002Z,14.10
2019-03-31T22:03:36.791Z,14.20
2019-03-31T22:06:07.421Z,14.07
2019-03-31T22:08:38.087Z,14.20
2019-03-31T22:11:08.725Z,14.63
2019-03-31T22:13:40.319Z,14.37
2019-03-31T22:16:10.947Z,14.60
2019-03-31T22:18:41.576Z,14.47
2019-03-31T22:21:12.983Z,14.37
2019-03-31T22:23:57.145Z,14.93
2019-03-31T22:26:19.355Z,15.17
2019-03-31T22:28:48.310Z,14.80
2019-03-31T22:31:19.078Z,15.67
2019-03-31T22:33:49.687Z,15.43
2019-03-31T22:36:25.125Z,16.60
2019-03-31T22:38:58.756Z,15.80
2019-03-31T22:41:29.367Z,16.17
2019-03-31T22:44:01.481Z,15.83
2019-03-31T22:46:32.183Z,15.97
2019-03-31T22:49:06.306Z,16.30
2019-03-31T22:51:36.976Z,17.30
2019-03-31T22:54:07.895Z,16.83
2019-03-31T22:56:38.784Z,15.70
2019-03-31T22:59:11.548Z,16.80
2019-03-31T23:01:42.197Z,17.80
2019-03-31T23:04:17.334Z,17.90
2019-03-31T23:06:47.891Z,17.33
2019-03-31T23:09:19.810Z,16.77
2019-03-31T23:11:50.403Z,17.90
2019-03-31T23:14:21.812Z,18.23
2019-03-31T23:16:53.375Z,18.37
2019-03-31T23:19:24.211Z,18.67
2019-03-31T23:22:09.044Z,18.47
2019-03-31T23:24:40.088Z,18.93
2019-03-31T23:27:10.710Z,20.00
2019-03-31T23:29:41.429Z,18.47
2019-03-31T23:32:12.095Z,19.57
2019-03-31T23:34:44.877Z,19.60
2019-03-31T23:37:15.478Z,20.43
2019-03-31T23:39:46.761Z,22.27
2019-03-31T23:42:17.464Z,23.17
2019-03-31T23:44:48.162Z,23.53
2019-03-31T23:47:18.791Z,22.57
2019-03-31T23:49:50.685Z,24.10
2019-03-31T23:52:26.182Z,23.43
2019-03-31T23:55:00.672Z,23.20
2019-03-31T23:57:41.164Z,23.47
